Time;durP1;ratioP1;P1;durP2;ratioP2;P2;SDS_P1;SDS_P2;PMS_P1;PMS_P2;Temp;Humidity;BMP_temperature;BMP_pressure;BME280_temperature;BME280_humidity;BME280_pressure;Samples;Min_cycle;Max_cycle;Signal;HPM_P1;HPM_P2
2022/07/10 11:21:26;;;;;;;5.05;4.53;;;;;;;22.61;64.07;100918.38;5069307;28;20386;-72
2022/07/10 11:23:58;;;;;;;4.85;4.35;;;;;;;22.66;64.94;100920.38;5069217;28;20033;-72
2022/07/10 11:26:49;;;;;;;8.57;5.50;;;;;;;22.84;64.10;100914.81;5069447;28;20515;-71
2022/07/10 11:29:18;;;;;;;9.55;5.00;;;;;;;22.84;64.04;100922.94;5068209;28;20066;-70
2022/07/10 11:31:52;;;;;;;9.90;6.18;;;;;;;22.90;63.18;100919.31;5069557;28;20048;-75
2022/07/10 11:34:18;;;;;;;10.98;6.43;;;;;;;22.92;63.21;100925.31;5069230;28;20040;-72
2022/07/10 11:36:43;;;;;;;13.02;5.47;;;;;;;22.98;63.47;100924.34;5069760;28;20542;-72
2022/07/10 11:39:09;;;;;;;5.30;4.75;;;;;;;23.08;62.91;100918.28;5069244;28;20391;-72
2022/07/10 11:41:42;;;;;;;7.13;5.18;;;;;;;22.97;63.41;100928.13;5069805;28;20135;-71
2022/07/10 11:44:14;;;;;;;5.88;5.32;;;;;;;22.81;62.87;100913.41;5069024;28;20060;-71
2022/07/10 11:46:40;;;;;;;4.97;4.47;;;;;;;22.68;63.91;100918.25;5067641;28;20033;-72
2022/07/10 11:49:07;;;;;;;6.18;4.80;;;;;;;22.62;64.35;100919.19;5068845;28;20075;-74
2022/07/10 11:51:36;;;;;;;7.35;4.82;;;;;;;22.63;64.15;100920.84;5069052;28;20036;-73
2022/07/10 11:54:13;;;;;;;9.07;5.45;;;;;;;22.73;63.87;100927.31;5069136;28;20033;-73
2022/07/10 11:56:41;;;;;;;6.30;5.72;;;;;;;22.59;63.77;100925.13;5069403;28;20375;-72
2022/07/10 11:59:09;;;;;;;5.07;4.57;;;;;;;22.51;64.15;100926.28;5068560;28;20115;-74
2022/07/10 12:01:44;;;;;;;4.82;4.43;;;;;;;22.35;63.78;100911.56;5068433;28;20048;-73
2022/07/10 12:04:11;;;;;;;6.93;4.75;;;;;;;22.50;63.18;100930.88;5068783;28;20102;-77
2022/07/10 12:06:39;;;;;;;4.13;3.72;;;;;;;22.63;63.02;100927.09;5068689;28;20119;-72
2022/07/10 12:09:10;;;;;;;30.88;9.57;;;;;;;22.85;60.00;100928.16;5067174;28;20116;-74
2022/07/10 12:11:36;;;;;;;5.18;3.03;;;;;;;23.03;58.95;100932.59;5069951;28;20044;-76
2022/07/10 12:14:16;;;;;;;3.75;3.10;;;;;;;23.06;58.69;100942.97;5068037;28;20613;-74
2022/07/10 12:16:43;;;;;;;26.38;9.65;;;;;;;23.04;57.34;100927.97;5068377;28;20043;-74
2022/07/10 12:19:14;;;;;;;6.35;3.30;;;;;;;23.08;57.34;100927.25;5068226;28;20039;-73
2022/07/10 12:21:44;;;;;;;3.67;3.38;;;;;;;23.04;58.16;100934.25;5067884;28;20036;-73
2022/07/10 12:24:12;;;;;;;7.85;3.90;;;;;;;22.96;57.42;100928.38;5067747;28;20055;-73
2022/07/10 12:26:40;;;;;;;3.95;3.63;;;;;;;22.96;56.78;100934.63;5067914;28;20040;-73
2022/07/10 12:29:05;;;;;;;4.78;4.38;;;;;;;22.78;58.35;100934.75;5067908;28;20132;-71
2022/07/10 12:31:37;;;;;;;4.88;3.67;;;;;;;22.67;59.53;100928.28;5061281;28;20540;-73
2022/07/10 12:34:04;;;;;;;6.55;4.57;;;;;;;22.55;61.12;100933.72;5054728;28;20029;-73
2022/07/10 12:36:43;;;;;;;4.57;3.53;;;;;;;22.54;60.95;100940.19;5054528;28;20029;-74
2022/07/10 12:39:11;;;;;;;5.03;3.65;;;;;;;22.52;61.02;100931.47;5054606;28;20040;-73
2022/07/10 12:41:54;;;;;;;4.95;4.38;;;;;;;22.53;60.66;100935.00;5054331;28;20036;-73
2022/07/10 12:44:36;;;;;;;7.07;3.97;;;;;;;22.42;60.90;100944.00;5054516;28;20554;-74
2022/07/10 12:47:11;;;;;;;6.10;4.35;;;;;;;22.32;60.61;100950.00;5053385;28;20068;-74
2022/07/10 12:49:56;;;;;;;6.50;3.40;;;;;;;22.39;60.30;100947.19;5054584;28;20028;-74
2022/07/10 12:52:23;;;;;;;4.63;3.28;;;;;;;22.23;60.21;100948.69;5054156;28;20037;-73
2022/07/10 12:54:49;;;;;;;5.15;4.18;;;;;;;22.13;61.25;100929.47;5054153;28;20037;-72
2022/07/10 12:57:14;;;;;;;5.55;3.17;;;;;;;22.28;62.12;100951.56;5054256;28;20454;-73
2022/07/10 12:59:41;;;;;;;2.97;2.67;;;;;;;22.40;61.50;100946.13;5054044;28;20083;-73
2022/07/10 13:02:21;;;;;;;3.88;2.83;;;;;;;22.40;60.20;100922.50;5054411;28;20488;-74
2022/07/10 13:04:57;;;;;;;3.65;2.60;;;;;;;22.59;60.06;100946.81;5054795;28;20116;-72
2022/07/10 13:07:33;;;;;;;9.38;3.60;;;;;;;22.63;60.70;100958.84;5054388;28;20059;-74
2022/07/10 13:10:04;;;;;;;8.98;4.88;;;;;;;22.63;61.20;100953.44;5053662;28;20029;-71
2022/07/10 13:12:29;;;;;;;8.10;3.58;;;;;;;22.55;60.30;100950.03;5053986;28;20039;-76
2022/07/10 13:14:55;;;;;;;6.95;4.32;;;;;;;22.49;61.95;100959.09;5053812;28;20115;-73
2022/07/10 13:17:20;;;;;;;3.45;3.03;;;;;;;22.42;61.64;100950.25;5053745;28;20037;-74
2022/07/10 13:19:48;;;;;;;6.95;3.53;;;;;;;22.39;61.64;100944.47;5053698;28;20715;-72
2022/07/10 13:22:13;;;;;;;8.77;4.20;;;;;;;22.43;62.16;100951.88;5053723;28;20041;-73
2022/07/10 13:24:40;;;;;;;8.68;3.38;;;;;;;22.50;62.99;100941.72;5053522;28;20049;-71
2022/07/10 13:27:05;;;;;;;5.30;3.58;;;;;;;22.59;62.47;100949.53;5053466;28;20036;-73
2022/07/10 13:29:32;;;;;;;5.55;3.42;;;;;;;22.50;63.53;100940.91;5052468;28;20043;-73
2022/07/10 13:31:57;;;;;;;4.38;3.85;;;;;;;22.40;64.03;100938.81;5053762;28;20033;-74
2022/07/10 13:34:23;;;;;;;4.35;3.95;;;;;;;22.40;65.39;100933.38;5053597;28;20079;-72
2022/07/10 13:36:50;;;;;;;3.95;3.53;;;;;;;22.30;66.05;100933.16;5052122;28;20028;-73
2022/07/10 13:39:16;;;;;;;5.18;4.22;;;;;;;22.28;66.28;100939.88;5053028;28;20033;-74
2022/07/10 13:41:41;;;;;;;6.25;4.40;;;;;;;22.25;68.20;100941.13;5054177;28;20089;-74
2022/07/10 13:44:06;;;;;;;5.32;4.40;;;;;;;22.22;67.86;100945.16;5052578;28;20082;-75
2022/07/10 13:46:32;;;;;;;4.97;4.35;;;;;;;22.21;68.41;100954.34;5053371;28;20040;-73
2022/07/10 13:48:58;;;;;;;14.38;5.57;;;;;;;22.06;71.52;100954.00;5051936;28;20037;-73
2022/07/10 13:51:24;;;;;;;6.32;3.80;;;;;;;21.63;68.68;100963.16;5056617;28;20037;-72
2022/07/10 13:53:49;;;;;;;9.38;4.32;;;;;;;21.17;70.82;100958.34;5059191;28;20428;-73
2022/07/10 13:56:15;;;;;;;3.92;3.33;;;;;;;20.53;72.32;100965.09;5059030;28;20138;-72
2022/07/10 13:58:40;;;;;;;5.30;3.15;;;;;;;20.16;74.06;100963.31;5059377;28;20037;-73
2022/07/10 14:01:06;;;;;;;3.85;3.35;;;;;;;19.95;73.99;100957.25;5062126;28;20037;-71
2022/07/10 14:03:31;;;;;;;3.67;2.88;;;;;;;19.99;70.68;100957.63;5062192;28;20381;-72
2022/07/10 14:05:57;;;;;;;9.68;3.38;;;;;;;20.17;70.35;100975.78;5063539;28;20032;-72
2022/07/10 14:08:24;;;;;;;5.00;2.80;;;;;;;20.21;70.79;100972.41;5061792;28;20565;-72
2022/07/10 14:10:50;;;;;;;5.07;3.42;;;;;;;20.26;70.23;100969.06;5056914;28;20499;-74
2022/07/10 14:13:15;;;;;;;3.85;2.40;;;;;;;20.25;69.63;100970.94;5060157;28;20032;-72
2022/07/10 14:15:44;;;;;;;5.25;2.60;;;;;;;20.28;68.79;100973.19;5059886;28;20036;-71
2022/07/10 14:18:10;;;;;;;2.50;1.80;;;;;;;20.23;67.68;100964.06;5060373;28;20243;-72
2022/07/10 14:23:22;;;;;;;6.18;2.55;;;;;;;20.36;68.76;100958.56;5062284;28;20068;-72
2022/07/10 14:25:48;;;;;;;3.58;1.75;;;;;;;20.47;68.42;100955.16;5058182;28;20472;-72
2022/07/10 14:28:14;;;;;;;2.03;1.70;;;;;;;20.37;66.48;100950.22;5062224;28;20039;-71
2022/07/10 14:30:43;;;;;;;3.17;2.17;;;;;;;20.44;69.58;100949.34;5061423;28;20040;-72
2022/07/10 14:33:09;;;;;;;2.80;2.05;;;;;;;20.54;68.04;100950.53;5053656;28;20037;-73
2022/07/10 14:35:34;;;;;;;3.25;2.30;;;;;;;20.47;67.34;100949.72;5052816;28;20048;-72
2022/07/10 14:38:00;;;;;;;4.22;1.80;;;;;;;20.45;68.11;100946.44;5052445;28;20153;-72
2022/07/10 14:40:25;;;;;;;5.30;2.40;;;;;;;20.44;67.01;100933.94;5052286;28;20503;-72
2022/07/10 14:42:51;;;;;;;6.63;2.00;;;;;;;20.64;67.46;100942.69;5052502;28;20067;-72
2022/07/10 14:45:16;;;;;;;7.47;4.57;;;;;;;20.76;68.89;100939.25;5052501;28;20124;-73
2022/07/10 14:47:41;;;;;;;4.15;2.78;;;;;;;20.80;67.50;100940.44;5052256;28;20091;-74
2022/07/10 14:50:07;;;;;;;6.35;2.88;;;;;;;20.89;67.37;100941.81;5052005;28;20087;-73
2022/07/10 14:52:33;;;;;;;3.45;2.50;;;;;;;20.87;67.72;100935.81;5052250;28;20546;-73
2022/07/10 14:55:01;;;;;;;4.38;3.25;;;;;;;20.79;68.55;100936.06;5052272;28;20033;-73
2022/07/10 14:57:28;;;;;;;6.07;2.38;;;;;;;20.69;68.56;100932.03;5052297;28;20036;-74
2022/07/10 14:59:53;;;;;;;3.47;2.35;;;;;;;20.66;69.36;100921.66;5051819;28;20076;-72
2022/07/10 15:02:19;;;;;;;5.88;2.80;;;;;;;20.61;68.52;100916.09;5051925;28;20063;-73
2022/07/10 15:04:44;;;;;;;3.58;2.60;;;;;;;20.66;69.11;100926.25;5051873;28;20040;-71
2022/07/10 15:07:10;;;;;;;3.80;2.95;;;;;;;20.66;68.98;100921.66;5051640;28;20040;-71
2022/07/10 15:09:36;;;;;;;4.57;3.50;;;;;;;20.62;69.67;100923.16;5051785;28;20032;-72
2022/07/10 15:12:01;;;;;;;5.97;3.83;;;;;;;20.52;69.44;100920.13;5051744;28;20040;-74
2022/07/10 15:14:28;;;;;;;8.90;3.25;;;;;;;20.48;70.24;100924.34;5051808;28;20080;-74
2022/07/10 15:16:54;;;;;;;3.67;3.38;;;;;;;20.41;69.11;100929.00;5051789;28;20049;-74
2022/07/10 15:19:20;;;;;;;4.75;3.10;;;;;;;20.38;69.04;100918.59;5051085;28;20052;-73
2022/07/10 15:21:46;;;;;;;3.08;2.50;;;;;;;20.35;68.83;100927.16;5052030;28;20037;-72
2022/07/10 15:24:12;;;;;;;4.60;3.67;;;;;;;20.33;69.20;100932.78;5051992;28;20077;-74
2022/07/10 15:26:38;;;;;;;5.32;3.13;;;;;;;20.23;69.83;100926.22;5052037;28;20068;-74
2022/07/10 15:29:03;;;;;;;5.35;3.78;;;;;;;20.24;70.35;100938.69;5053984;28;20477;-72
2022/07/10 15:31:29;;;;;;;4.85;3.60;;;;;;;20.22;71.11;100924.56;5055635;28;20037;-72
2022/07/10 15:33:55;;;;;;;3.60;3.22;;;;;;;20.24;71.33;100923.31;5054800;28;20403;-72
2022/07/10 15:36:21;;;;;;;4.85;3.70;;;;;;;20.36;71.40;100928.81;5054884;28;20037;-71
2022/07/10 15:38:47;;;;;;;7.82;4.72;;;;;;;20.41;71.02;100926.28;5052078;28;20033;-73
2022/07/10 15:41:12;;;;;;;6.63;4.13;;;;;;;20.53;71.18;100927.22;5051476;28;20040;-73
2022/07/10 15:43:39;;;;;;;9.50;4.47;;;;;;;20.55;71.56;100925.13;5051376;28;20037;-75
2022/07/10 15:46:05;;;;;;;5.03;3.88;;;;;;;20.39;71.29;100920.25;5051452;28;20044;-73
2022/07/10 15:48:31;;;;;;;6.20;3.90;;;;;;;20.47;72.35;100941.63;5051006;28;20032;-73
2022/07/10 15:50:56;;;;;;;5.18;3.80;;;;;;;20.38;72.46;100934.81;5051405;28;20074;-72
2022/07/10 15:53:22;;;;;;;5.07;3.70;;;;;;;20.41;73.81;100940.63;5051362;28;20037;-73
2022/07/10 15:55:47;;;;;;;5.28;3.80;;;;;;;20.48;71.81;100935.16;5051510;28;20041;-73
2022/07/10 15:58:13;;;;;;;8.25;6.65;;;;;;;20.58;72.41;100934.66;5050269;28;20573;-73
2022/07/10 16:00:39;;;;;;;5.10;3.72;;;;;;;20.72;70.99;100936.97;5050202;28;20044;-74
2022/07/10 16:03:04;;;;;;;4.07;3.28;;;;;;;20.78;69.82;100935.25;5052136;28;20059;-72
2022/07/10 16:05:30;;;;;;;3.58;2.80;;;;;;;20.76;69.39;100941.94;5051676;28;20073;-73
2022/07/10 16:07:55;;;;;;;4.05;3.28;;;;;;;20.71;69.72;100931.81;5055599;28;20029;-75
2022/07/10 16:10:21;;;;;;;3.78;3.15;;;;;;;20.77;70.60;100947.13;5055732;28;20539;-75
2022/07/10 16:12:46;;;;;;;5.53;4.43;;;;;;;20.72;70.82;100941.56;5055322;28;20039;-73
2022/07/10 16:15:12;;;;;;;5.07;3.20;;;;;;;20.79;71.41;100942.31;5059614;28;20045;-73
2022/07/10 16:17:37;;;;;;;10.75;3.70;;;;;;;20.69;69.85;100939.31;5064233;28;20028;-73
2022/07/10 16:22:54;;;;;;;6.15;3.47;;;;;;;20.60;70.63;100944.22;5061676;28;20044;-75
2022/07/10 16:28:09;;;;;;;4.13;3.70;;;;;;;20.52;70.36;100941.78;5055087;28;20041;-74
2022/07/10 16:30:34;;;;;;;5.18;4.68;;;;;;;20.51;71.02;100937.41;5055298;28;20553;-74
2022/07/10 16:33:00;;;;;;;5.70;3.10;;;;;;;20.54;70.29;100936.16;5053868;28;20520;-73
2022/07/10 16:35:26;;;;;;;5.88;3.08;;;;;;;20.51;70.31;100934.72;5054706;28;20032;-74
2022/07/10 16:37:51;;;;;;;3.88;3.40;;;;;;;20.54;70.48;100933.47;5054722;28;20171;-74
2022/07/10 16:40:16;;;;;;;5.25;4.75;;;;;;;20.61;71.83;100934.22;5054520;28;20037;-73
2022/07/10 16:42:42;;;;;;;4.30;3.88;;;;;;;20.63;72.46;100929.41;5054611;28;20063;-77
2022/07/10 16:45:08;;;;;;;6.95;3.63;;;;;;;20.69;72.39;100932.03;5054379;28;20059;-74
2022/07/10 16:47:34;;;;;;;4.32;3.88;;;;;;;20.82;72.25;100924.84;5054463;28;20041;-73
2022/07/10 16:49:59;;;;;;;3.45;3.05;;;;;;;21.08;70.68;100918.25;5054953;28;20132;-75
2022/07/10 16:52:25;;;;;;;5.55;4.15;;;;;;;21.27;69.86;100909.91;5054543;28;20115;-73
2022/07/10 16:54:51;;;;;;;4.10;3.75;;;;;;;21.51;68.18;100918.94;5054097;28;20037;-73
2022/07/10 16:57:16;;;;;;;3.55;3.10;;;;;;;21.65;67.65;100917.66;5054468;28;20038;-76
2022/07/10 16:59:42;;;;;;;5.90;3.10;;;;;;;21.61;67.91;100923.78;5053960;28;20411;-74
2022/07/10 17:02:07;;;;;;;3.40;3.10;;;;;;;21.58;68.18;100918.84;5053037;28;20043;-73
2022/07/10 17:04:35;;;;;;;6.07;2.97;;;;;;;21.50;67.64;100916.47;5054251;28;20047;-74
2022/07/10 17:07:05;;;;;;;;;;;;;;;21.59;67.99;100925.91;5053099;28;20041;-73
2022/07/10 17:09:31;;;;;;;4.90;3.63;;;;;;;21.42;67.60;100925.75;5053962;28;19917;-74
2022/07/10 17:11:57;;;;;;;4.07;3.17;;;;;;;21.37;68.13;100927.47;5053832;28;20093;-73
2022/07/10 17:14:22;;;;;;;4.95;4.03;;;;;;;21.33;68.39;100927.09;5053773;28;20098;-74
2022/07/10 17:16:48;;;;;;;5.75;4.22;;;;;;;21.40;68.79;100937.88;5053443;28;20106;-73
2022/07/10 17:19:15;;;;;;;5.18;3.75;;;;;;;21.28;68.10;100916.13;5052030;28;21566;-74
2022/07/10 17:21:42;;;;;;;4.35;3.33;;;;;;;21.41;67.39;100942.25;5054057;28;20086;-73
2022/07/10 17:24:08;;;;;;;4.57;3.13;;;;;;;21.39;67.34;100938.91;5053764;28;20345;-74
2022/07/10 17:26:33;;;;;;;6.07;3.53;;;;;;;21.08;68.37;100938.03;5053839;28;20502;-73
2022/07/10 17:29:00;;;;;;;3.47;2.75;;;;;;;20.94;68.59;100941.97;5053710;28;20049;-73
2022/07/10 17:31:25;;;;;;;4.07;2.97;;;;;;;20.92;69.15;100952.19;5054647;28;20036;-73
2022/07/10 17:33:52;;;;;;;4.47;3.60;;;;;;;20.77;69.16;100938.19;5053536;28;20064;-73
2022/07/10 17:36:17;;;;;;;5.85;3.72;;;;;;;20.56;69.74;100943.00;5054008;28;20041;-73
2022/07/10 17:38:43;;;;;;;5.88;4.22;;;;;;;20.38;70.04;100945.63;5053618;28;20037;-73
2022/07/10 17:41:09;;;;;;;3.90;3.50;;;;;;;20.24;69.83;100947.66;5053388;28;20045;-73
2022/07/10 17:43:35;;;;;;;4.85;4.07;;;;;;;20.17;70.69;100954.16;5053837;28;20396;-73
2022/07/10 17:46:00;;;;;;;3.30;3.00;;;;;;;20.14;69.86;100960.00;5052240;28;20036;-75
2022/07/10 17:48:26;;;;;;;4.43;3.17;;;;;;;20.15;69.87;100961.66;5053229;28;20041;-74
2022/07/10 17:50:52;;;;;;;3.08;2.70;;;;;;;20.07;70.56;100955.47;5053285;28;20484;-73
2022/07/10 17:53:17;;;;;;;4.80;3.80;;;;;;;19.92;70.34;100946.84;5053277;28;20029;-72
2022/07/10 17:55:43;;;;;;;3.55;3.10;;;;;;;19.98;70.89;100966.78;5053323;28;20048;-73
2022/07/10 17:58:09;;;;;;;3.67;3.38;;;;;;;19.90;70.93;100975.97;5052534;28;20056;-73
2022/07/10 18:00:34;;;;;;;4.65;3.03;;;;;;;19.77;71.84;100976.06;5053117;28;20033;-73
2022/07/10 18:03:00;;;;;;;4.57;3.47;;;;;;;19.69;71.47;100990.69;5053264;28;20033;-73
2022/07/10 18:05:25;;;;;;;4.82;3.28;;;;;;;19.62;71.45;100976.34;5051569;28;20029;-73
2022/07/10 18:07:51;;;;;;;5.32;4.50;;;;;;;19.57;72.41;100980.75;5051796;28;20029;-74
2022/07/10 18:10:16;;;;;;;4.15;3.75;;;;;;;19.50;72.96;100987.00;5052476;28;20043;-74
2022/07/10 18:12:42;;;;;;;5.40;3.42;;;;;;;19.49;72.94;100993.44;5052943;28;20035;-73
2022/07/10 18:15:08;;;;;;;4.25;3.30;;;;;;;19.48;73.23;100999.91;5052715;28;20045;-74
2022/07/10 18:17:33;;;;;;;4.18;3.78;;;;;;;19.47;73.45;101003.63;5052800;28;20043;-73
2022/07/10 18:20:04;;;;;;;6.25;3.97;;;;;;;19.49;74.80;101001.56;5051262;28;20053;-72
2022/07/10 18:22:30;;;;;;;4.22;3.83;;;;;;;19.32;73.75;100967.97;5052575;28;20037;-74
2022/07/10 18:24:56;;;;;;;4.53;3.92;;;;;;;19.52;74.70;101000.28;5052893;28;20090;-73
2022/07/10 18:27:21;;;;;;;5.40;3.85;;;;;;;19.43;74.47;100986.22;5053326;28;20124;-72
2022/07/10 18:29:48;;;;;;;8.10;4.68;;;;;;;19.50;74.67;101005.91;5051958;28;20488;-73
2022/07/10 18:32:16;;;;;;;4.68;4.20;;;;;;;19.43;74.94;100997.00;5052412;28;20095;-73
2022/07/10 18:34:42;;;;;;;4.75;4.10;;;;;;;19.45;74.73;101016.53;5052445;28;20381;-73
2022/07/10 18:37:08;;;;;;;7.53;4.63;;;;;;;19.41;74.48;101015.31;5052250;28;20036;-75
2022/07/10 18:39:34;;;;;;;6.95;4.80;;;;;;;19.39;74.88;101017.41;5052403;28;20036;-73
2022/07/10 18:42:00;;;;;;;6.03;5.30;;;;;;;19.39;75.76;101019.28;5052701;28;20427;-73
2022/07/10 18:44:26;;;;;;;6.20;5.00;;;;;;;19.36;75.97;101025.91;5052157;28;20480;-73
2022/07/10 18:46:52;;;;;;;5.57;4.07;;;;;;;19.22;74.06;101010.81;5052109;28;20041;-72
2022/07/10 18:49:17;;;;;;;5.80;3.88;;;;;;;19.15;74.05;101015.41;5052256;28;20112;-74
2022/07/10 18:51:43;;;;;;;6.38;4.50;;;;;;;19.07;74.09;101012.91;5051950;28;20037;-73
2022/07/10 18:54:09;;;;;;;5.45;4.22;;;;;;;19.04;74.84;101018.75;5052617;28;20090;-74
2022/07/10 18:56:36;;;;;;;6.40;4.55;;;;;;;18.99;76.63;101026.66;5052455;28;20029;-73
2022/07/10 18:59:01;;;;;;;9.85;5.70;;;;;;;18.97;75.68;101021.47;5052735;28;20451;-73
2022/07/10 19:01:28;;;;;;;9.20;5.20;;;;;;;18.92;76.46;101020.44;5051701;28;20036;-72
2022/07/10 19:03:55;;;;;;;8.68;5.70;;;;;;;18.80;76.49;101006.78;5052027;28;20033;-72
2022/07/10 19:06:22;;;;;;;6.18;5.20;;;;;;;18.76;76.83;101011.75;5051949;28;20098;-73
2022/07/10 19:08:47;;;;;;;6.25;5.32;;;;;;;18.77;78.17;101010.69;5052428;28;20068;-74
2022/07/10 19:11:13;;;;;;;6.97;5.20;;;;;;;18.75;77.90;101011.94;5052787;28;20064;-73
2022/07/10 19:13:38;;;;;;;7.30;5.55;;;;;;;18.62;77.94;100984.97;5053201;28;20029;-73
2022/07/10 19:16:05;;;;;;;5.13;4.63;;;;;;;18.77;78.31;101023.34;5051987;28;20132;-72
2022/07/10 19:18:31;;;;;;;7.90;6.10;;;;;;;18.72;78.05;101007.81;5052040;28;20122;-72
2022/07/10 19:21:01;;;;;;;8.20;5.35;;;;;;;18.69;77.73;101013.63;5051831;28;20068;-72
2022/07/10 19:23:27;;;;;;;6.60;5.70;;;;;;;18.66;77.62;101008.66;5052113;28;20107;-72
2022/07/10 19:25:54;;;;;;;6.35;5.75;;;;;;;18.70;78.25;101012.59;5051754;28;20061;-74
2022/07/10 19:28:19;;;;;;;5.70;5.15;;;;;;;18.63;78.61;101006.38;5052184;28;20035;-75
2022/07/10 19:30:45;;;;;;;12.55;6.38;;;;;;;18.63;79.04;101003.69;5050605;28;20443;-74
2022/07/10 19:33:11;;;;;;;7.32;6.72;;;;;;;18.56;79.13;101003.66;5051726;28;20082;-72
2022/07/10 19:35:37;;;;;;;7.30;5.53;;;;;;;18.42;79.56;100993.06;5051648;28;20033;-75
2022/07/10 19:38:02;;;;;;;10.23;6.60;;;;;;;18.49;79.65;101010.06;5052277;28;20507;-73
2022/07/10 19:40:29;;;;;;;7.15;6.50;;;;;;;18.44;80.16;101010.72;5051837;28;20041;-72
2022/07/10 19:42:55;;;;;;;9.73;7.73;;;;;;;18.37;81.66;101011.75;5055706;28;20041;-74
2022/07/10 19:45:22;;;;;;;11.02;6.90;;;;;;;18.34;81.25;101012.16;5054691;28;20293;-72
2022/07/10 19:47:52;;;;;;;10.43;8.73;;;;;;;18.25;81.31;101009.69;5055837;28;20447;-73
2022/07/10 19:50:17;;;;;;;11.57;8.00;;;;;;;18.21;82.02;101011.16;5055774;28;20063;-73
2022/07/10 19:52:42;;;;;;;14.02;8.77;;;;;;;18.18;82.26;101008.84;5056080;28;20411;-73
2022/07/10 19:55:08;;;;;;;9.68;8.68;;;;;;;18.11;82.57;101002.63;5055699;28;20442;-72
2022/07/10 19:57:36;;;;;;;10.63;8.43;;;;;;;18.05;82.76;101003.44;5055688;28;20056;-74
2022/07/10 20:00:04;;;;;;;12.52;9.73;;;;;;;18.02;82.67;101011.94;5055391;28;20127;-73
2022/07/10 20:02:29;;;;;;;10.75;9.55;;;;;;;17.99;82.92;101009.66;5054924;28;20434;-74
2022/07/10 20:04:55;;;;;;;11.88;10.55;;;;;;;17.98;83.54;101013.38;5055131;28;20083;-73
2022/07/10 20:07:20;;;;;;;15.77;9.98;;;;;;;17.94;83.39;101007.59;5054147;28;20064;-74
2022/07/10 20:09:46;;;;;;;13.77;10.75;;;;;;;17.82;83.44;100987.66;5055255;28;20041;-74
2022/07/10 20:12:11;;;;;;;14.52;10.30;;;;;;;17.89;83.78;101018.13;5055639;28;20051;-72
2022/07/10 20:14:37;;;;;;;19.23;11.73;;;;;;;17.83;83.55;101016.25;5054127;28;20041;-72
2022/07/10 20:17:02;;;;;;;19.08;11.88;;;;;;;17.81;83.84;101017.50;5054862;28;20033;-72
2022/07/10 20:19:30;;;;;;;24.08;12.07;;;;;;;17.78;84.03;101017.91;5054465;28;20067;-72
2022/07/10 20:21:56;;;;;;;25.48;13.10;;;;;;;17.76;84.06;101014.59;5055074;28;20419;-72
2022/07/10 20:24:22;;;;;;;24.00;12.75;;;;;;;17.72;84.68;101007.94;5054965;28;20063;-73
2022/07/10 20:26:47;;;;;;;26.10;12.35;;;;;;;17.64;84.88;101004.38;5055107;28;20037;-73
2022/07/10 20:29:13;;;;;;;45.88;13.15;;;;;;;17.65;85.45;101014.13;5054942;28;20041;-72
2022/07/10 20:32:04;;;;;;;39.42;14.98;;;;;;;17.55;85.71;101010.97;5054832;28;20051;-73
2022/07/10 20:34:30;;;;;;;27.55;14.35;;;;;;;17.59;85.71;101020.28;5054598;28;20048;-73
2022/07/10 20:39:39;;;;;;;34.10;16.10;;;;;;;17.47;86.02;101005.75;5054484;28;20460;-73
2022/07/10 20:42:06;;;;;;;33.53;14.63;;;;;;;17.47;86.70;101013.00;5054522;28;20116;-72
2022/07/10 20:44:32;;;;;;;26.95;14.43;;;;;;;17.44;87.06;101011.56;5054740;28;20048;-71
2022/07/10 20:46:57;;;;;;;29.45;15.13;;;;;;;17.43;87.42;101007.19;5054628;28;20411;-73
2022/07/10 20:49:22;;;;;;;34.60;19.50;;;;;;;17.35;87.26;100996.63;5054539;28;20116;-72
2022/07/10 20:51:48;;;;;;;30.17;15.48;;;;;;;17.32;87.60;101000.50;5053756;28;20033;-73
2022/07/10 20:54:13;;;;;;;37.45;16.00;;;;;;;17.28;87.70;101001.13;5054199;28;20041;-73
2022/07/10 20:56:39;;;;;;;36.92;15.05;;;;;;;17.30;88.24;101004.44;5054121;28;20064;-72
2022/07/10 20:59:04;;;;;;;33.22;14.88;;;;;;;17.18;88.14;100992.59;5053989;28;20036;-72
2022/07/10 21:01:31;;;;;;;36.55;14.50;;;;;;;17.21;89.00;100987.63;5053997;28;20041;-73
2022/07/10 21:03:56;;;;;;;33.72;15.45;;;;;;;17.16;88.85;100983.88;5054255;28;20095;-72
2022/07/10 21:06:23;;;;;;;40.45;15.88;;;;;;;17.16;88.99;100986.59;5054698;28;20393;-71
2022/07/10 21:08:48;;;;;;;29.00;13.85;;;;;;;17.13;88.79;100981.59;5054380;28;20032;-73
2022/07/10 21:11:14;;;;;;;36.95;15.55;;;;;;;17.09;89.03;100985.72;5054512;28;20028;-73
2022/07/10 21:13:39;;;;;;;29.63;12.27;;;;;;;17.06;89.09;100986.97;5054166;28;20056;-74
2022/07/10 21:16:06;;;;;;;29.20;14.90;;;;;;;16.85;89.41;100958.28;5054372;28;20116;-72
2022/07/10 21:18:32;;;;;;;29.90;13.73;;;;;;;16.99;89.63;100976.16;5053294;28;20151;-72
2022/07/10 21:20:57;;;;;;;27.83;14.70;;;;;;;16.97;90.21;100977.38;5054264;28;20056;-72
2022/07/10 21:23:23;;;;;;;27.33;15.77;;;;;;;16.92;90.10;100977.97;5055809;28;20205;-74
2022/07/10 21:25:48;;;;;;;29.15;13.75;;;;;;;16.94;89.90;100985.84;5059593;28;20035;-72
2022/07/10 21:28:14;;;;;;;24.63;13.45;;;;;;;16.89;89.79;100983.75;5075865;28;20049;-72
2022/07/10 21:30:39;;;;;;;27.85;13.30;;;;;;;16.91;89.83;100986.25;5077365;28;20106;-72
2022/07/10 21:33:09;;;;;;;20.50;12.90;;;;;;;16.84;90.38;100991.59;5078989;28;20030;-71
2022/07/10 21:35:35;;;;;;;24.80;14.43;;;;;;;16.81;90.17;100989.31;5079129;28;20104;-72
2022/07/10 21:38:01;;;;;;;26.27;14.48;;;;;;;16.79;90.19;100996.75;5058562;28;20499;-73
2022/07/10 21:40:27;;;;;;;25.88;14.30;;;;;;;16.77;90.83;101001.50;5055111;28;20560;-72
2022/07/10 21:42:55;;;;;;;32.00;13.95;;;;;;;16.76;91.12;101005.19;5054381;28;20036;-73
2022/07/10 21:45:21;;;;;;;20.85;12.93;;;;;;;16.71;91.09;101005.78;5052528;28;20533;-72
2022/07/10 21:47:47;;;;;;;24.67;12.88;;;;;;;16.67;91.02;101009.06;5054589;28;20124;-71
2022/07/10 21:50:13;;;;;;;25.52;13.73;;;;;;;16.55;91.29;100999.84;5053804;28;20032;-73
2022/07/10 21:52:38;;;;;;;24.50;15.05;;;;;;;16.64;91.59;101030.94;5052472;28;20029;-73
2022/07/10 21:55:04;;;;;;;20.95;13.27;;;;;;;16.63;91.16;101037.34;5053132;28;20098;-73
2022/07/10 21:57:32;;;;;;;23.58;13.20;;;;;;;16.59;91.08;101034.22;5053384;28;20124;-72
2022/07/10 21:59:57;;;;;;;19.08;13.30;;;;;;;16.62;91.39;101043.75;5053258;28;20138;-73
2022/07/10 22:02:25;;;;;;;17.15;13.95;;;;;;;16.61;91.47;101042.09;5053324;28;20130;-72
2022/07/10 22:04:51;;;;;;;15.57;12.63;;;;;;;16.58;91.53;101055.91;5052414;28;20044;-71
2022/07/10 22:07:16;;;;;;;21.48;13.52;;;;;;;16.47;91.56;101035.75;5053104;28;20060;-71
2022/07/10 22:09:42;;;;;;;22.30;14.43;;;;;;;16.53;91.47;101053.00;5052887;28;20118;-74
2022/07/10 22:12:07;;;;;;;13.95;11.50;;;;;;;16.55;91.82;101059.00;5053165;28;20035;-73
2022/07/10 22:14:33;;;;;;;20.15;13.60;;;;;;;16.53;91.89;101058.38;5053264;28;20551;-73
2022/07/10 22:16:58;;;;;;;17.15;12.90;;;;;;;16.51;92.09;101063.09;5052936;28;20118;-72
2022/07/10 22:19:26;;;;;;;18.73;12.20;;;;;;;16.51;91.90;101058.56;5052649;28;20053;-73
2022/07/10 22:21:53;;;;;;;14.20;12.77;;;;;;;16.41;91.70;101034.69;5052835;28;20052;-72
2022/07/10 22:24:18;;;;;;;15.73;12.57;;;;;;;16.53;91.72;101055.69;5052658;28;20048;-72
2022/07/10 22:26:43;;;;;;;15.35;12.88;;;;;;;16.41;91.74;101026.63;5053147;28;20365;-73
2022/07/10 22:29:09;;;;;;;15.52;13.27;;;;;;;16.51;91.66;101041.59;5052842;28;20439;-72
2022/07/10 22:31:35;;;;;;;17.55;12.15;;;;;;;16.54;91.42;101055.47;5051975;28;20070;-72
2022/07/10 22:34:01;;;;;;;17.00;13.25;;;;;;;16.51;91.64;101053.19;5052559;28;20071;-72
2022/07/10 22:36:27;;;;;;;16.65;12.45;;;;;;;16.46;91.93;101049.38;5052575;28;20044;-73
2022/07/10 22:38:53;;;;;;;16.45;12.65;;;;;;;16.42;92.07;101060.53;5052204;28;20043;-73
2022/07/10 22:41:19;;;;;;;17.80;12.95;;;;;;;16.31;91.83;101052.16;5052510;28;20139;-74
2022/07/10 22:43:44;;;;;;;14.82;13.30;;;;;;;16.37;91.96;101068.34;5052886;28;20120;-73
2022/07/10 22:46:10;;;;;;;15.95;13.93;;;;;;;16.19;92.16;101049.19;5052391;28;20041;-73
2022/07/10 22:48:36;;;;;;;16.70;13.27;;;;;;;16.20;92.35;101050.84;5052593;28;20033;-73
2022/07/10 22:51:02;;;;;;;18.08;16.23;;;;;;;16.25;92.41;101069.91;5052369;28;20071;-72